Time;durP1;ratioP1;P1;durP2;ratioP2;P2;SDS_P1;SDS_P2;PMS_P1;PMS_P2;Temp;Humidity;BMP_temperature;BMP_pressure;BME280_temperature;BME280_humidity;BME280_pressure;Samples;Min_cycle;Max_cycle;Signal;HPM_P1;HPM_P2
2023/05/22 00:00:06;;;;;;;23.05;19.38;;;19.20;99.90;;;;;;4992996;28;20034;-79
2023/05/22 00:02:37;;;;;;;23.55;19.92;;;19.30;99.90;;;;;;4948221;28;20038;-79
2023/05/22 00:05:05;;;;;;;21.05;18.95;;;19.30;99.90;;;;;;4993314;28;20681;-77
2023/05/22 00:07:31;;;;;;;22.75;20.42;;;19.40;99.90;;;;;;4973700;28;20086;-79
2023/05/22 00:09:57;;;;;;;21.98;19.65;;;19.20;99.90;;;;;;4948063;28;20042;-78
2023/05/22 00:12:22;;;;;;;21.60;19.30;;;19.30;99.90;;;;;;4974610;28;20070;-78
2023/05/22 00:14:48;;;;;;;21.48;19.08;;;19.20;99.90;;;;;;4992212;28;20037;-79
2023/05/22 00:17:17;;;;;;;20.58;18.48;;;19.30;99.90;;;;;;4949464;28;20072;-77
2023/05/22 00:19:43;;;;;;;23.10;20.17;;;19.10;99.90;;;;;;4963863;28;20041;-77
2023/05/22 00:22:09;;;;;;;24.30;21.70;;;19.30;99.90;;;;;;4980307;28;20057;-78
2023/05/22 00:24:34;;;;;;;24.38;21.77;;;19.10;99.90;;;;;;4976940;28;20041;-79
2023/05/22 00:27:00;;;;;;;24.88;22.10;;;19.10;99.90;;;;;;4934174;28;20045;-78
2023/05/22 00:29:26;;;;;;;28.63;23.75;;;19.20;99.90;;;;;;4970299;28;20042;-79
2023/05/22 00:31:52;;;;;;;25.13;21.52;;;19.50;99.90;;;;;;4992587;28;20070;-80
2023/05/22 00:34:18;;;;;;;23.90;20.70;;;19.50;99.90;;;;;;4980753;28;20042;-80
2023/05/22 00:36:44;;;;;;;27.33;21.63;;;19.50;99.90;;;;;;4998778;28;20046;-79
2023/05/22 00:39:10;;;;;;;25.85;23.15;;;19.30;99.90;;;;;;5049675;28;20117;-80
2023/05/22 00:41:37;;;;;;;26.80;23.08;;;19.50;99.90;;;;;;4976054;28;20044;-80
2023/05/22 00:44:03;;;;;;;25.05;22.10;;;19.50;99.90;;;;;;4981893;28;20049;-79
2023/05/22 00:46:29;;;;;;;24.05;21.52;;;19.50;99.90;;;;;;4968377;28;20368;-81
2023/05/22 00:48:55;;;;;;;23.83;21.33;;;19.50;99.90;;;;;;5010323;28;20516;-78
2023/05/22 00:51:22;;;;;;;22.48;20.02;;;19.50;99.90;;;;;;4968651;28;20048;-79
2023/05/22 00:53:49;;;;;;;23.15;20.85;;;19.50;99.90;;;;;;4971307;28;20179;-82
2023/05/22 00:56:16;;;;;;;22.42;20.02;;;19.30;99.90;;;;;;5009970;28;20363;-81
2023/05/22 00:58:42;;;;;;;22.38;20.02;;;19.50;99.90;;;;;;4965354;28;20382;-80
2023/05/22 01:01:10;;;;;;;25.58;21.25;;;19.40;99.90;;;;;;4978055;28;20067;-78
2023/05/22 01:03:43;;;;;;;24.38;21.88;;;19.30;99.90;;;;;;4970881;28;20058;-78
2023/05/22 01:06:10;;;;;;;24.30;21.70;;;19.50;99.90;;;;;;4969291;28;20753;-78
2023/05/22 01:08:36;;;;;;;22.42;20.00;;;19.20;99.90;;;;;;4955107;28;20041;-78
2023/05/22 01:11:21;;;;;;;22.90;20.40;;;19.20;99.90;;;;;;4979231;28;20612;-78
2023/05/22 01:14:17;;;;;;;27.02;23.67;;;19.30;99.90;;;;;;4965855;28;20087;-77
2023/05/22 01:17:11;;;;;;;28.58;24.33;;;19.20;99.90;;;;;;4970055;28;20038;-78
2023/05/22 01:20:10;;;;;;;25.55;21.25;;;19.30;99.90;;;;;;4986918;28;20038;-78
2023/05/22 01:23:01;;;;;;;20.98;18.88;;;19.60;99.90;;;;;;4968014;28;20053;-78
2023/05/22 01:25:42;;;;;;;23.60;21.10;;;19.50;99.90;;;;;;4968031;28;20069;-79
2023/05/22 01:28:08;;;;;;;25.48;22.13;;;19.40;99.90;;;;;;4985299;28;20049;-78
2023/05/22 01:30:58;;;;;;;25.58;22.55;;;19.40;99.90;;;;;;4969933;28;21561;-78
2023/05/22 01:33:25;;;;;;;22.85;20.45;;;19.60;99.90;;;;;;4970842;28;20069;-79
2023/05/22 01:35:52;;;;;;;22.05;19.50;;;19.70;99.90;;;;;;4984575;28;20046;-80
2023/05/22 01:38:19;;;;;;;21.85;19.50;;;19.40;99.90;;;;;;4981696;28;20061;-79
2023/05/22 01:40:46;;;;;;;21.23;18.92;;;19.60;99.90;;;;;;4979704;28;20030;-79
2023/05/22 01:43:13;;;;;;;24.55;21.02;;;19.70;99.90;;;;;;4955477;28;20129;-77
2023/05/22 01:45:39;;;;;;;21.92;19.65;;;19.30;99.90;;;;;;4975219;28;20053;-78
2023/05/22 01:48:05;;;;;;;24.30;21.70;;;19.60;99.90;;;;;;4959594;28;20042;-78
2023/05/22 01:50:31;;;;;;;22.67;20.30;;;19.30;99.90;;;;;;4960149;28;20042;-78
2023/05/22 01:53:18;;;;;;;27.45;21.15;;;19.20;99.90;;;;;;4963723;28;20041;-77
2023/05/22 01:55:56;;;;;;;22.40;20.00;;;19.20;99.90;;;;;;4972857;28;20164;-78
2023/05/22 01:58:45;;;;;;;22.63;20.23;;;19.40;99.90;;;;;;4961453;28;20038;-79
2023/05/22 02:01:13;;;;;;;20.33;18.02;;;19.40;99.90;;;;;;4993017;28;20068;-79
2023/05/22 02:03:40;;;;;;;22.42;20.02;;;19.30;99.90;;;;;;4961181;28;20058;-79
2023/05/22 02:06:08;;;;;;;22.73;20.15;;;19.20;99.90;;;;;;4947715;28;20044;-79
2023/05/22 02:08:40;;;;;;;21.50;19.30;;;19.20;99.90;;;;;;4965564;28;20061;-79
2023/05/22 02:11:07;;;;;;;22.27;19.88;;;19.40;99.90;;;;;;4979088;28;20125;-79
2023/05/22 02:13:33;;;;;;;22.17;19.80;;;19.00;99.90;;;;;;4992346;28;20075;-78
2023/05/22 02:16:00;;;;;;;23.27;20.13;;;19.30;99.90;;;;;;4965589;28;20386;-77
2023/05/22 02:18:28;;;;;;;22.58;20.23;;;19.10;99.90;;;;;;4979753;28;20038;-75
2023/05/22 02:20:56;;;;;;;23.50;20.02;;;19.00;99.90;;;;;;4980650;28;20038;-76
2023/05/22 02:23:21;;;;;;;21.90;19.58;;;19.40;99.90;;;;;;4950675;28;20046;-78
2023/05/22 02:25:47;;;;;;;23.73;20.95;;;19.30;99.90;;;;;;4953985;28;20034;-78
2023/05/22 02:28:13;;;;;;;22.17;19.75;;;19.10;99.90;;;;;;4965697;28;20406;-79
2023/05/22 02:30:39;;;;;;;24.67;19.67;;;19.20;99.90;;;;;;4984815;28;20074;-79
2023/05/22 02:33:04;;;;;;;22.50;20.15;;;19.00;99.90;;;;;;4971981;28;20042;-81
2023/05/22 02:35:31;;;;;;;22.25;19.88;;;19.30;99.90;;;;;;4953474;28;20446;-81
2023/05/22 02:37:57;;;;;;;24.08;21.50;;;18.90;99.90;;;;;;4980398;28;20029;-80
2023/05/22 02:40:22;;;;;;;21.95;19.65;;;19.20;99.90;;;;;;4970152;28;20171;-80
2023/05/22 02:42:48;;;;;;;22.92;20.52;;;19.20;99.90;;;;;;4997469;28;20081;-79
2023/05/22 02:45:14;;;;;;;22.00;19.67;;;19.00;99.90;;;;;;4970714;28;20045;-80
2023/05/22 02:47:39;;;;;;;22.95;20.55;;;19.30;99.90;;;;;;4986121;28;20057;-80
2023/05/22 02:50:06;;;;;;;23.23;20.75;;;19.10;99.90;;;;;;4979974;28;20072;-78
2023/05/22 02:52:32;;;;;;;22.05;19.75;;;19.30;99.90;;;;;;4996165;28;20038;-79
2023/05/22 02:54:58;;;;;;;25.98;23.05;;;19.10;99.90;;;;;;4964916;28;20068;-79
2023/05/22 02:57:23;;;;;;;23.75;21.05;;;19.30;99.90;;;;;;4981026;28;20379;-79
2023/05/22 02:59:49;;;;;;;24.88;22.25;;;19.30;99.90;;;;;;5012328;28;20037;-79
2023/05/22 03:02:16;;;;;;;26.05;22.40;;;19.40;99.90;;;;;;5067900;28;20049;-78
2023/05/22 03:04:42;;;;;;;25.88;23.17;;;19.10;99.90;;;;;;5029917;28;20066;-80
2023/05/22 03:07:08;;;;;;;25.70;22.90;;;19.30;99.90;;;;;;4968449;28;20055;-78
2023/05/22 03:09:33;;;;;;;25.17;22.58;;;19.00;99.90;;;;;;4963330;28;20039;-78
2023/05/22 03:11:59;;;;;;;26.38;23.55;;;19.10;99.90;;;;;;4993065;28;20035;-79
2023/05/22 03:14:25;;;;;;;26.02;23.23;;;19.30;99.90;;;;;;4989997;28;20584;-79
2023/05/22 03:16:53;;;;;;;26.60;23.70;;;18.90;99.90;;;;;;4996839;28;20058;-78
2023/05/22 03:19:19;;;;;;;25.88;23.13;;;18.90;99.90;;;;;;4965801;28;20031;-78
2023/05/22 03:21:45;;;;;;;27.75;24.15;;;19.10;99.90;;;;;;4956575;28;20075;-78
2023/05/22 03:24:13;;;;;;;25.67;22.95;;;19.10;99.90;;;;;;4951240;28;20130;-79
2023/05/22 03:26:40;;;;;;;26.75;22.88;;;19.30;99.90;;;;;;4949983;28;20039;-80
2023/05/22 03:29:06;;;;;;;26.25;22.65;;;19.00;99.90;;;;;;4965538;28;20132;-79
2023/05/22 03:31:33;;;;;;;24.77;22.17;;;19.10;99.90;;;;;;4966709;28;20050;-79
2023/05/22 03:33:59;;;;;;;27.02;24.13;;;18.90;99.90;;;;;;4983142;28;20403;-79
2023/05/22 03:36:25;;;;;;;26.90;23.73;;;19.20;99.90;;;;;;4971686;28;20136;-80
2023/05/22 03:38:51;;;;;;;27.58;24.02;;;19.20;99.90;;;;;;4950963;28;20039;-79
2023/05/22 03:41:17;;;;;;;27.88;23.30;;;19.30;99.90;;;;;;4960620;28;20402;-79
2023/05/22 03:43:43;;;;;;;26.25;23.42;;;18.90;99.90;;;;;;4957239;28;20039;-79
2023/05/22 03:46:12;;;;;;;27.17;22.45;;;19.20;99.90;;;;;;4994417;28;20046;-79
2023/05/22 03:48:38;;;;;;;25.13;22.58;;;18.90;99.90;;;;;;4991454;28;20395;-78
2023/05/22 03:51:04;;;;;;;24.98;22.27;;;19.10;99.90;;;;;;4961177;28;20096;-79
2023/05/22 03:53:29;;;;;;;26.50;23.83;;;19.10;99.90;;;;;;4968468;28;20051;-78
2023/05/22 03:55:56;;;;;;;25.38;22.73;;;19.10;99.90;;;;;;4963052;28;20043;-79
2023/05/22 03:58:26;;;;;;;24.70;22.15;;;19.10;99.90;;;;;;4992662;28;20033;-78
2023/05/22 04:00:57;;;;;;;25.27;22.48;;;18.90;99.90;;;;;;4981005;28;20034;-78
2023/05/22 04:03:23;;;;;;;25.77;23.02;;;19.10;99.90;;;;;;4942355;28;20120;-78
2023/05/22 04:05:50;;;;;;;25.75;23.10;;;18.90;99.90;;;;;;4963028;28;20526;-79
2023/05/22 04:08:22;;;;;;;23.88;21.33;;;19.00;99.90;;;;;;4929358;28;20054;-78
2023/05/22 04:10:53;;;;;;;24.70;21.83;;;18.80;99.90;;;;;;4924398;28;20041;-78
2023/05/22 04:13:21;;;;;;;25.23;21.08;;;18.90;99.90;;;;;;4953513;28;20034;-80
2023/05/22 04:15:48;;;;;;;25.40;21.50;;;19.20;99.90;;;;;;4938978;28;20828;-79
2023/05/22 04:18:14;;;;;;;28.00;21.52;;;18.80;99.90;;;;;;4954954;28;20051;-79
2023/05/22 04:20:41;;;;;;;26.50;23.27;;;19.10;99.90;;;;;;4940832;28;20589;-79
2023/05/22 04:23:07;;;;;;;26.88;24.00;;;18.80;99.90;;;;;;4924749;28;20043;-80
2023/05/22 04:25:38;;;;;;;27.17;23.30;;;18.80;99.90;;;;;;4945625;28;20997;-81
2023/05/22 04:28:04;;;;;;;27.50;23.63;;;18.70;99.90;;;;;;4961974;28;20074;-79
2023/05/22 04:30:33;;;;;;;29.10;24.48;;;18.70;99.90;;;;;;4958819;28;20071;-80
2023/05/22 04:33:00;;;;;;;26.60;22.40;;;18.90;99.90;;;;;;4942677;28;20070;-79
2023/05/22 04:35:28;;;;;;;25.13;22.42;;;19.10;99.90;;;;;;4928677;28;20051;-78
2023/05/22 04:37:55;;;;;;;25.10;21.92;;;18.80;99.90;;;;;;4943976;28;20048;-78
2023/05/22 04:40:21;;;;;;;26.70;21.73;;;18.80;99.90;;;;;;4931121;28;20057;-81
2023/05/22 04:42:46;;;;;;;27.15;23.02;;;18.90;99.90;;;;;;4926010;28;20051;-80
2023/05/22 04:45:12;;;;;;;28.08;24.08;;;19.00;99.90;;;;;;4956021;28;20089;-80
2023/05/22 04:47:40;;;;;;;25.98;21.88;;;19.20;99.90;;;;;;4925940;28;20554;-79
2023/05/22 04:50:06;;;;;;;25.48;22.73;;;19.00;99.90;;;;;;4956534;28;20105;-78
2023/05/22 04:52:32;;;;;;;27.10;23.42;;;19.00;99.90;;;;;;4938680;28;20077;-79
2023/05/22 04:54:58;;;;;;;27.10;21.95;;;19.00;99.90;;;;;;4955219;28;20464;-80
2023/05/22 04:57:26;;;;;;;24.20;21.60;;;18.90;99.90;;;;;;4930888;28;20043;-79
2023/05/22 04:59:56;;;;;;;24.23;20.58;;;19.30;99.90;;;;;;4927224;28;20118;-79
2023/05/22 05:02:30;;;;;;;23.77;18.85;;;19.10;99.90;;;;;;4923240;28;20039;-80
2023/05/22 05:04:59;;;;;;;26.05;19.55;;;19.40;99.90;;;;;;4958534;28;20065;-79
2023/05/22 05:07:25;;;;;;;22.20;19.10;;;19.10;99.90;;;;;;4960925;28;20100;-79
2023/05/22 05:09:56;;;;;;;23.30;18.73;;;19.30;99.90;;;;;;4958753;28;20074;-79
2023/05/22 05:12:33;;;;;;;20.65;18.02;;;19.10;99.90;;;;;;4977941;28;20125;-81
2023/05/22 05:14:59;;;;;;;23.95;18.27;;;19.40;99.90;;;;;;4946746;28;20034;-79
2023/05/22 05:17:25;;;;;;;21.35;17.80;;;19.30;99.90;;;;;;4979482;28;20088;-79
2023/05/22 05:19:50;;;;;;;20.65;17.10;;;19.50;99.90;;;;;;4989939;28;20096;-78
2023/05/22 05:22:16;;;;;;;17.40;15.45;;;19.70;99.90;;;;;;4989997;28;20046;-78
2023/05/22 05:24:42;;;;;;;20.58;17.10;;;19.30;99.90;;;;;;4990691;28;20561;-79
2023/05/22 05:27:07;;;;;;;18.27;16.17;;;19.50;99.90;;;;;;4963876;28;20111;-78
2023/05/22 05:29:33;;;;;;;18.20;16.30;;;19.70;99.90;;;;;;4977282;28;20411;-78
2023/05/22 05:31:59;;;;;;;21.80;16.55;;;19.50;99.90;;;;;;4950559;28;20042;-79
2023/05/22 05:34:25;;;;;;;19.52;16.15;;;19.50;99.90;;;;;;4983719;28;20034;-78
2023/05/22 05:36:51;;;;;;;19.45;16.73;;;19.80;99.90;;;;;;4961767;28;20047;-79
2023/05/22 05:39:17;;;;;;;18.20;15.32;;;19.90;99.90;;;;;;4957423;28;20403;-78
2023/05/22 05:41:43;;;;;;;17.73;15.90;;;19.80;99.90;;;;;;4988887;28;20129;-78
2023/05/22 05:44:08;;;;;;;23.98;16.35;;;19.60;99.90;;;;;;4982459;28;20133;-78
2023/05/22 05:46:34;;;;;;;17.67;15.25;;;20.00;99.90;;;;;;4968565;28;20050;-78
2023/05/22 05:49:04;;;;;;;16.75;15.05;;;20.00;99.90;;;;;;4949464;28;20048;-78
2023/05/22 05:51:30;;;;;;;18.20;15.65;;;19.90;99.90;;;;;;4982117;28;20386;-77
2023/05/22 05:53:56;;;;;;;17.30;14.70;;;19.80;99.90;;;;;;4963532;28;20043;-79
2023/05/22 05:56:21;;;;;;;17.60;15.25;;;19.70;99.90;;;;;;4961003;28;20061;-80
2023/05/22 05:58:48;;;;;;;16.38;14.50;;;19.70;99.90;;;;;;4999104;28;20162;-79
2023/05/22 06:01:15;;;;;;;20.13;15.25;;;19.90;99.90;;;;;;4961598;28;20133;-79
2023/05/22 06:03:41;;;;;;;16.25;14.65;;;19.90;99.90;;;;;;4973946;28;20528;-77
2023/05/22 06:06:07;;;;;;;19.75;15.15;;;19.80;99.90;;;;;;4972314;28;20057;-79
2023/05/22 06:08:35;;;;;;;18.45;14.93;;;19.90;99.90;;;;;;4976932;28;20402;-78
2023/05/22 06:11:10;;;;;;;15.18;13.52;;;19.90;99.90;;;;;;4972866;28;20046;-78
2023/05/22 06:13:36;;;;;;;15.95;13.93;;;19.80;99.90;;;;;;4970780;28;20046;-77
2023/05/22 06:16:03;;;;;;;20.55;14.68;;;19.90;99.90;;;;;;4979284;28;20044;-79
2023/05/22 06:18:28;;;;;;;15.55;13.40;;;19.80;99.90;;;;;;4968260;28;20038;-76
2023/05/22 06:20:56;;;;;;;15.82;12.68;;;19.80;99.90;;;;;;4969668;28;20577;-76
2023/05/22 06:23:21;;;;;;;16.10;12.82;;;20.20;99.90;;;;;;4967812;28;20128;-76
2023/05/22 06:25:47;;;;;;;16.92;13.68;;;19.80;99.90;;;;;;4962110;28;20160;-76
2023/05/22 06:28:13;;;;;;;17.30;13.40;;;19.80;99.90;;;;;;4982633;28;20041;-79
2023/05/22 06:30:39;;;;;;;16.98;12.82;;;19.80;99.90;;;;;;5000215;28;20415;-79
2023/05/22 06:33:05;;;;;;;15.38;11.82;;;20.10;99.90;;;;;;4976114;28;20041;-78
2023/05/22 06:35:31;;;;;;;16.95;12.75;;;19.90;99.90;;;;;;4970393;28;20141;-79
2023/05/22 06:37:57;;;;;;;14.57;12.18;;;20.10;99.90;;;;;;4980083;28;20556;-78
2023/05/22 06:40:23;;;;;;;17.02;10.90;;;19.90;99.90;;;;;;5047234;28;20034;-78
2023/05/22 06:42:49;;;;;;;15.13;10.77;;;20.00;99.90;;;;;;4983161;28;20559;-79
2023/05/22 06:45:16;;;;;;;16.65;11.20;;;20.10;99.90;;;;;;4967271;28;20049;-79
2023/05/22 06:47:42;;;;;;;21.42;10.32;;;20.20;99.90;;;;;;4997647;28;20573;-76
2023/05/22 06:50:09;;;;;;;17.20;10.27;;;20.10;99.90;;;;;;4997271;28;20034;-78
2023/05/22 06:52:35;;;;;;;17.40;10.68;;;20.10;99.90;;;;;;4967420;28;20049;-78
2023/05/22 06:55:04;;;;;;;19.77;9.40;;;20.20;99.90;;;;;;4997521;28;20049;-77
2023/05/22 06:57:33;;;;;;;16.50;10.77;;;19.80;99.90;;;;;;4993836;28;20034;-79
2023/05/22 06:59:59;;;;;;;12.82;10.00;;;19.90;99.90;;;;;;4965616;28;20038;-77
2023/05/22 07:02:25;;;;;;;16.80;9.57;;;20.20;99.90;;;;;;4977210;28;20355;-77
2023/05/22 07:04:52;;;;;;;17.30;8.95;;;19.90;99.90;;;;;;4955793;28;20060;-76
2023/05/22 07:07:18;;;;;;;15.43;9.20;;;19.70;99.90;;;;;;4971211;28;20394;-78
2023/05/22 07:09:44;;;;;;;17.52;8.55;;;19.70;99.90;;;;;;5000436;28;20049;-76
2023/05/22 07:12:09;;;;;;;19.13;9.10;;;20.00;99.90;;;;;;4979394;28;20057;-76
2023/05/22 07:14:35;;;;;;;14.18;8.10;;;19.90;99.90;;;;;;4978429;28;20039;-75
2023/05/22 07:17:01;;;;;;;15.48;8.23;;;19.80;99.90;;;;;;4953865;28;20053;-77
2023/05/22 07:19:34;;;;;;;21.45;8.77;;;19.80;99.90;;;;;;4964472;28;20375;-78
2023/05/22 07:22:00;;;;;;;19.52;9.15;;;19.90;99.90;;;;;;4953036;28;20049;-78
2023/05/22 07:24:26;;;;;;;25.42;9.48;;;19.80;99.90;;;;;;4969343;28;20508;-77
2023/05/22 07:26:52;;;;;;;20.70;8.65;;;19.50;99.90;;;;;;4968185;28;20042;-77
2023/05/22 07:29:17;;;;;;;20.35;8.55;;;19.50;99.90;;;;;;4952846;28;20034;-78
2023/05/22 07:31:43;;;;;;;17.08;8.57;;;19.40;99.90;;;;;;4962458;28;20030;-78
2023/05/22 07:34:09;;;;;;;31.65;9.07;;;19.40;99.90;;;;;;4969232;28;20046;-79
2023/05/22 07:36:35;;;;;;;22.75;8.57;;;19.40;99.90;;;;;;4968277;28;20132;-78
2023/05/22 07:39:00;;;;;;;17.73;8.45;;;19.20;99.90;;;;;;4954233;28;20037;-78
2023/05/22 07:41:26;;;;;;;23.50;9.77;;;19.40;99.90;;;;;;4975280;28;20038;-78
2023/05/22 07:43:52;;;;;;;18.52;8.55;;;19.20;99.90;;;;;;4980645;28;20034;-78
2023/05/22 07:46:18;;;;;;;20.35;9.27;;;19.20;99.90;;;;;;4991259;28;20080;-79
2023/05/22 07:48:44;;;;;;;19.15;9.38;;;19.10;99.90;;;;;;4949290;28;20090;-79
2023/05/22 07:51:10;;;;;;;16.70;9.48;;;19.20;99.90;;;;;;4962900;28;20355;-79
2023/05/22 07:53:35;;;;;;;17.27;9.18;;;19.10;99.90;;;;;;4991320;28;20061;-79
2023/05/22 07:56:01;;;;;;;19.92;9.75;;;19.10;99.90;;;;;;4966429;28;20045;-79
2023/05/22 07:58:27;;;;;;;24.88;9.43;;;19.40;99.90;;;;;;4998799;28;20038;-79
2023/05/22 08:00:53;;;;;;;17.83;8.20;;;19.40;99.90;;;;;;4969134;28;20565;-79
2023/05/22 08:03:19;;;;;;;24.33;9.60;;;19.30;99.90;;;;;;4952477;28;20057;-79
2023/05/22 08:05:45;;;;;;;19.33;9.90;;;19.00;99.90;;;;;;5046765;28;20054;-78
2023/05/22 08:08:10;;;;;;;20.15;9.55;;;19.00;99.90;;;;;;4963229;28;20615;-78
2023/05/22 08:10:36;;;;;;;19.08;9.15;;;19.30;99.90;;;;;;4964472;28;20045;-79
2023/05/22 08:13:05;;;;;;;15.50;9.32;;;19.20;99.90;;;;;;4949000;28;20038;-79
2023/05/22 08:15:31;;;;;;;19.75;9.55;;;19.10;99.90;;;;;;4950558;28;20044;-79
2023/05/22 08:17:57;;;;;;;20.33;9.55;;;19.00;99.90;;;;;;4951008;28;20034;-78
2023/05/22 08:20:23;;;;;;;19.08;9.57;;;19.10;99.90;;;;;;4949093;28;20042;-79
2023/05/22 08:22:48;;;;;;;21.10;10.70;;;19.50;99.90;;;;;;4984287;28;20041;-79
2023/05/22 08:25:14;;;;;;;17.90;10.95;;;19.10;99.90;;;;;;4995614;28;20133;-79
2023/05/22 08:27:40;;;;;;;18.67;10.32;;;19.40;99.90;;;;;;4983959;28;20034;-79
2023/05/22 08:30:07;;;;;;;16.02;9.90;;;19.30;99.90;;;;;;4954836;28;20041;-79
2023/05/22 08:32:33;;;;;;;20.27;10.27;;;19.10;99.90;;;;;;4954865;28;20045;-79
2023/05/22 08:34:59;;;;;;;18.33;10.27;;;19.40;99.90;;;;;;4953108;28;20038;-79
2023/05/22 08:37:25;;;;;;;19.75;9.98;;;19.30;99.90;;;;;;4979435;28;20034;-79
2023/05/22 08:39:51;;;;;;;16.30;10.38;;;19.40;99.90;;;;;;4969067;28;20083;-78
2023/05/22 08:42:17;;;;;;;15.80;9.65;;;19.40;99.90;;;;;;4982115;28;20493;-77
2023/05/22 08:44:42;;;;;;;16.67;10.23;;;19.30;99.90;;;;;;4970605;28;20046;-79
2023/05/22 08:47:09;;;;;;;15.68;9.93;;;19.20;99.90;;;;;;4939881;28;20044;-78
2023/05/22 08:49:37;;;;;;;18.65;9.98;;;19.50;99.90;;;;;;4987658;28;20115;-79
2023/05/22 08:52:19;;;;;;;18.92;10.77;;;19.30;99.90;;;;;;4970188;28;20038;-78
2023/05/22 08:54:53;;;;;;;17.17;10.23;;;19.30;99.90;;;;;;4970953;28;20042;-79
2023/05/22 08:57:19;;;;;;;18.33;10.50;;;19.50;99.90;;;;;;4988721;28;20057;-79
2023/05/22 08:59:47;;;;;;;17.10;9.98;;;19.40;99.90;;;;;;4973325;28;20029;-79
2023/05/22 09:02:15;;;;;;;15.90;10.50;;;19.50;99.90;;;;;;4988291;28;20038;-80
2023/05/22 09:04:41;;;;;;;19.58;11.15;;;19.50;99.90;;;;;;4956168;28;20046;-79
2023/05/22 09:07:07;;;;;;;19.52;10.85;;;19.70;99.90;;;;;;4972342;28;20363;-78
2023/05/22 09:09:40;;;;;;;19.35;10.77;;;19.50;99.90;;;;;;4972939;28;20038;-78
2023/05/22 09:12:08;;;;;;;23.60;10.98;;;19.60;99.90;;;;;;4966592;28;20780;-81
2023/05/22 09:14:44;;;;;;;18.52;11.10;;;19.50;99.90;;;;;;4940563;28;20248;-77
2023/05/22 09:17:14;;;;;;;19.05;11.32;;;19.70;99.90;;;;;;4972611;28;20037;-77
2023/05/22 09:19:46;;;;;;;16.20;11.57;;;19.90;99.90;;;;;;4989221;28;20030;-78
2023/05/22 09:22:15;;;;;;;14.57;9.95;;;19.90;99.90;;;;;;4972512;28;20409;-78
2023/05/22 09:24:42;;;;;;;20.00;10.65;;;20.00;99.90;;;;;;4990603;28;20483;-80
2023/05/22 09:27:09;;;;;;;18.73;10.65;;;19.80;99.90;;;;;;4972606;28;20128;-77
2023/05/22 09:29:51;;;;;;;21.13;11.77;;;20.10;99.90;;;;;;4990513;28;20053;-81
2023/05/22 09:32:17;;;;;;;21.15;11.27;;;20.20;99.90;;;;;;4989268;28;20058;-80
2023/05/22 09:34:44;;;;;;;17.75;11.32;;;20.00;99.90;;;;;;4972800;28;20034;-80
2023/05/22 09:37:11;;;;;;;20.85;11.90;;;20.30;99.90;;;;;;4986716;28;20086;-78
2023/05/22 09:39:42;;;;;;;17.92;11.23;;;20.40;99.90;;;;;;4974207;28;20044;-77
2023/05/22 09:42:11;;;;;;;13.57;10.93;;;20.40;99.90;;;;;;4972333;28;20158;-79
2023/05/22 09:44:38;;;;;;;18.27;11.98;;;20.60;99.90;;;;;;4989265;28;20069;-77
2023/05/22 09:47:06;;;;;;;17.30;11.18;;;20.80;99.90;;;;;;4971047;28;20466;-79
2023/05/22 09:49:36;;;;;;;18.17;10.70;;;20.70;99.90;;;;;;4972459;28;20049;-77
2023/05/22 09:52:06;;;;;;;16.70;11.45;;;21.10;99.90;;;;;;5004565;28;20070;-79
2023/05/22 09:54:59;;;;;;;14.70;10.25;;;20.70;99.90;;;;;;4982045;28;20083;-79
2023/05/22 09:57:44;;;;;;;19.15;11.52;;;20.80;99.90;;;;;;4952777;28;20133;-79
2023/05/22 10:00:19;;;;;;;12.80;9.90;;;20.60;99.90;;;;;;4955622;28;20053;-78
2023/05/22 10:03:16;;;;;;;14.65;10.68;;;21.40;99.90;;;;;;5004505;28;20050;-79
2023/05/22 10:05:51;;;;;;;16.48;11.40;;;21.30;99.90;;;;;;4988263;28;20516;-79
2023/05/22 10:08:27;;;;;;;17.67;10.68;;;22.00;99.90;;;;;;4973066;28;20045;-78
2023/05/22 10:10:53;;;;;;;19.92;11.07;;;22.10;99.90;;;;;;5012211;28;20187;-79
2023/05/22 10:13:20;;;;;;;19.08;11.43;;;21.70;99.90;;;;;;4994676;28;20038;-78
2023/05/22 10:15:49;;;;;;;14.02;10.30;;;21.90;99.90;;;;;;5012543;28;20052;-79
2023/05/22 10:18:16;;;;;;;16.42;10.75;;;21.70;99.90;;;;;;4955532;28;20088;-77
2023/05/22 10:20:42;;;;;;;17.55;11.05;;;21.80;99.90;;;;;;4957273;28;20088;-78
2023/05/22 10:23:09;;;;;;;19.60;10.73;;;22.00;99.90;;;;;;4964627;28;20052;-76
2023/05/22 10:25:38;;;;;;;17.67;10.60;;;22.10;99.90;;;;;;4987648;28;20050;-78
2023/05/22 10:28:06;;;;;;;24.48;11.65;;;21.90;99.90;;;;;;4978448;28;20698;-79
2023/05/22 10:30:50;;;;;;;15.25;10.00;;;21.50;99.90;;;;;;4999649;28;20038;-78
2023/05/22 10:33:20;;;;;;;15.82;10.50;;;21.80;99.90;;;;;;4984253;28;20057;-78
2023/05/22 10:36:03;;;;;;;18.35;11.38;;;21.80;99.90;;;;;;4994428;28;20038;-78
2023/05/22 10:38:54;;;;;;;21.95;11.50;;;21.80;99.90;;;;;;5015068;28;20125;-79
2023/05/22 10:41:21;;;;;;;21.40;10.98;;;22.20;99.90;;;;;;4996646;28;20041;-76
2023/05/22 10:43:50;;;;;;;17.70;10.18;;;22.30;99.90;;;;;;4987129;28;20041;-78
2023/05/22 10:46:17;;;;;;;16.88;11.45;;;22.80;99.90;;;;;;4972768;28;20081;-76
2023/05/22 10:48:47;;;;;;;15.05;10.57;;;22.50;99.90;;;;;;4955453;28;20042;-78
2023/05/22 10:51:14;;;;;;;16.90;12.02;;;22.60;99.90;;;;;;4968636;28;20048;-78
2023/05/22 10:53:44;;;;;;;18.80;11.02;;;23.00;99.90;;;;;;4995984;28;20057;-78
2023/05/22 10:56:14;;;;;;;16.48;12.63;;;23.10;99.90;;;;;;4965893;28;20038;-79
2023/05/22 10:58:54;;;;;;;17.38;12.63;;;23.00;99.90;;;;;;4972363;28;20032;-78
2023/05/22 11:01:24;;;;;;;15.07;12.07;;;23.20;99.90;;;;;;4970955;28;20029;-76
2023/05/22 11:03:57;;;;;;;14.90;12.18;;;23.20;99.90;;;;;;4968718;28;20106;-78
2023/05/22 11:06:40;;;;;;;16.48;11.82;;;23.10;99.90;;;;;;4983968;28;20050;-80
2023/05/22 11:09:29;;;;;;;18.50;12.35;;;23.10;99.90;;;;;;4970773;28;20064;-77
2023/05/22 11:12:16;;;;;;;16.08;12.50;;;23.10;99.90;;;;;;4990165;28;20097;-79
2023/05/22 11:14:48;;;;;;;17.23;12.27;;;23.10;99.90;;;;;;4985013;28;20046;-77
2023/05/22 11:17:18;;;;;;;17.40;12.07;;;23.20;99.90;;;;;;4966565;28;20042;-78
2023/05/22 11:20:03;;;;;;;12.77;11.43;;;23.30;99.90;;;;;;5016272;28;20050;-76
2023/05/22 11:22:50;;;;;;;12.23;10.90;;;23.50;99.90;;;;;;4968903;28;20462;-78
2023/05/22 11:25:18;;;;;;;12.68;11.38;;;23.50;99.90;;;;;;5012796;28;20069;-78
2023/05/22 11:27:46;;;;;;;13.30;11.25;;;23.70;99.90;;;;;;5000033;28;20648;-79
2023/05/22 11:30:12;;;;;;;14.20;11.43;;;23.60;99.90;;;;;;4997444;28;20057;-77
2023/05/22 11:32:43;;;;;;;13.05;11.50;;;23.90;99.90;;;;;;4951105;28;20099;-76
2023/05/22 11:35:13;;;;;;;14.07;10.98;;;24.20;99.90;;;;;;4980962;28;20065;-75
2023/05/22 11:37:40;;;;;;;14.43;12.27;;;25.00;99.90;;;;;;4972813;28;20074;-77
2023/05/22 11:40:07;;;;;;;14.57;13.02;;;25.10;99.90;;;;;;4964071;28;20110;-80
2023/05/22 11:42:34;;;;;;;12.80;11.50;;;25.10;99.90;;;;;;4979330;28;20125;-77
2023/05/22 11:45:00;;;;;;;16.42;14.00;;;25.10;99.90;;;;;;4997549;28;20401;-73
2023/05/22 11:47:27;;;;;;;9.93;8.90;;;25.20;99.90;;;;;;4987361;28;20048;-73
2023/05/22 11:49:55;;;;;;;15.32;13.73;;;25.10;99.90;;;;;;4965635;28;20076;-78
2023/05/22 11:52:21;;;;;;;14.18;12.82;;;25.20;99.90;;;;;;4986685;28;20431;-77
2023/05/22 11:54:47;;;;;;;13.15;11.95;;;25.60;99.90;;;;;;4991978;28;20099;-78
2023/05/22 11:57:14;;;;;;;13.55;11.73;;;25.30;99.90;;;;;;4983302;28;20038;-74
2023/05/22 11:59:43;;;;;;;12.48;11.38;;;25.60;99.90;;;;;;5010328;28;20091;-74
2023/05/22 12:02:09;;;;;;;12.95;11.60;;;25.40;99.90;;;;;;4955940;28;20534;-75
2023/05/22 12:04:36;;;;;;;13.30;11.90;;;26.20;99.90;;;;;;4938518;28;20065;-76
2023/05/22 12:07:02;;;;;;;13.23;11.93;;;25.80;99.90;;;;;;4965605;28;20034;-74
2023/05/22 12:09:28;;;;;;;13.75;12.45;;;26.10;99.90;;;;;;4981882;28;20484;-75
2023/05/22 12:11:58;;;;;;;13.73;12.43;;;25.80;99.90;;;;;;4964589;28;20034;-75
2023/05/22 12:14:27;;;;;;;13.35;12.07;;;25.90;99.90;;;;;;4966202;28;20070;-78
2023/05/22 12:16:54;;;;;;;14.05;12.65;;;25.70;99.90;;;;;;4969935;28;20042;-75
2023/05/22 12:19:20;;;;;;;13.68;12.38;;;26.20;99.90;;;;;;4992424;28;20073;-77
2023/05/22 12:21:56;;;;;;;15.13;13.70;;;26.50;99.90;;;;;;4992347;28;20048;-76
2023/05/22 12:24:24;;;;;;;14.48;13.00;;;26.50;99.90;;;;;;4970956;28;20084;-73
2023/05/22 12:26:54;;;;;;;15.57;14.18;;;26.00;99.90;;;;;;4963554;28;20065;-77
2023/05/22 12:29:23;;;;;;;13.80;12.50;;;25.40;99.90;;;;;;4983322;28;20073;-75
2023/05/22 12:31:50;;;;;;;13.70;12.43;;;25.70;99.90;;;;;;4988400;28;20126;-78
2023/05/22 12:34:17;;;;;;;14.15;12.75;;;26.30;99.90;;;;;;4997004;28;20123;-77